sensor_id;sensor_type;location;lat;lon;timestamp;temperature;humidity
210;DHT22;90;48.810;9.120;2022-07-29T00:01:14;22.30;74.70
210;DHT22;90;48.810;9.120;2022-07-29T00:03:42;22.30;74.70
210;DHT22;90;48.810;9.120;2022-07-29T00:06:09;22.30;74.70
210;DHT22;90;48.810;9.120;2022-07-29T00:08:37;22.30;74.70
210;DHT22;90;48.810;9.120;2022-07-29T00:11:04;22.30;74.60
210;DHT22;90;48.810;9.120;2022-07-29T00:13:32;22.30;74.70
210;DHT22;90;48.810;9.120;2022-07-29T00:15:59;22.30;74.60
210;DHT22;90;48.810;9.120;2022-07-29T00:18:26;22.30;74.70
210;DHT22;90;48.810;9.120;2022-07-29T00:20:53;22.30;74.80
210;DHT22;90;48.810;9.120;2022-07-29T00:23:21;22.20;74.90
210;DHT22;90;48.810;9.120;2022-07-29T00:25:49;22.30;75.00
210;DHT22;90;48.810;9.120;2022-07-29T00:28:16;22.20;74.80
210;DHT22;90;48.810;9.120;2022-07-29T00:30:43;22.10;75.30
210;DHT22;90;48.810;9.120;2022-07-29T00:33:10;22.20;75.50
210;DHT22;90;48.810;9.120;2022-07-29T00:35:37;22.20;75.60
210;DHT22;90;48.810;9.120;2022-07-29T00:38:09;22.10;75.60
210;DHT22;90;48.810;9.120;2022-07-29T00:40:37;22.10;75.60
210;DHT22;90;48.810;9.120;2022-07-29T00:43:05;22.10;75.40
210;DHT22;90;48.810;9.120;2022-07-29T00:45:32;22.10;75.40
210;DHT22;90;48.810;9.120;2022-07-29T00:47:59;22.10;75.30
210;DHT22;90;48.810;9.120;2022-07-29T00:50:27;22.10;75.30
210;DHT22;90;48.810;9.120;2022-07-29T00:52:54;22.10;75.30
210;DHT22;90;48.810;9.120;2022-07-29T00:55:21;22.10;75.00
210;DHT22;90;48.810;9.120;2022-07-29T00:57:48;22.10;74.90
210;DHT22;90;48.810;9.120;2022-07-29T01:00:19;22.20;74.80
210;DHT22;90;48.810;9.120;2022-07-29T01:02:47;22.20;74.60
210;DHT22;90;48.810;9.120;2022-07-29T01:05:16;22.20;74.60
210;DHT22;90;48.810;9.120;2022-07-29T01:07:44;22.20;74.60
210;DHT22;90;48.810;9.120;2022-07-29T01:10:13;22.20;74.40
210;DHT22;90;48.810;9.120;2022-07-29T01:12:43;22.20;74.30
210;DHT22;90;48.810;9.120;2022-07-29T01:15:11;22.20;74.30
210;DHT22;90;48.810;9.120;2022-07-29T01:17:44;22.20;74.30
210;DHT22;90;48.810;9.120;2022-07-29T01:20:17;22.20;74.40
210;DHT22;90;48.810;9.120;2022-07-29T01:23:08;22.10;74.60
210;DHT22;90;48.810;9.120;2022-07-29T01:26:08;22.10;74.70
210;DHT22;90;48.810;9.120;2022-07-29T01:28:49;22.00;74.90
210;DHT22;90;48.810;9.120;2022-07-29T01:31:25;22.10;74.80
210;DHT22;90;48.810;9.120;2022-07-29T01:33:58;22.00;74.60
210;DHT22;90;48.810;9.120;2022-07-29T01:36:31;22.00;74.60
210;DHT22;90;48.810;9.120;2022-07-29T01:39:05;22.10;74.30
210;DHT22;90;48.810;9.120;2022-07-29T01:41:34;22.10;74.30
210;DHT22;90;48.810;9.120;2022-07-29T01:44:12;22.10;74.20
210;DHT22;90;48.810;9.120;2022-07-29T01:46:45;22.10;74.20
210;DHT22;90;48.810;9.120;2022-07-29T01:49:17;22.10;74.40
210;DHT22;90;48.810;9.120;2022-07-29T01:51:49;22.00;74.30
210;DHT22;90;48.810;9.120;2022-07-29T01:54:23;22.00;74.30
210;DHT22;90;48.810;9.120;2022-07-29T01:56:54;22.00;74.30
210;DHT22;90;48.810;9.120;2022-07-29T01:59:25;22.00;74.30
210;DHT22;90;48.810;9.120;2022-07-29T02:01:54;22.00;74.30
210;DHT22;90;48.810;9.120;2022-07-29T02:04:22;21.90;74.50
210;DHT22;90;48.810;9.120;2022-07-29T02:06:51;21.80;74.50
210;DHT22;90;48.810;9.120;2022-07-29T02:09:20;21.80;74.50
210;DHT22;90;48.810;9.120;2022-07-29T02:11:49;21.80;74.50
210;DHT22;90;48.810;9.120;2022-07-29T02:14:19;21.80;74.40
210;DHT22;90;48.810;9.120;2022-07-29T02:16:52;21.80;74.30
210;DHT22;90;48.810;9.120;2022-07-29T02:19:22;21.80;74.30
210;DHT22;90;48.810;9.120;2022-07-29T02:21:53;21.80;74.30
210;DHT22;90;48.810;9.120;2022-07-29T02:24:23;21.90;74.10
210;DHT22;90;48.810;9.120;2022-07-29T02:26:53;21.90;74.00
210;DHT22;90;48.810;9.120;2022-07-29T02:29:23;21.90;74.00
210;DHT22;90;48.810;9.120;2022-07-29T02:31:53;21.90;74.00
210;DHT22;90;48.810;9.120;2022-07-29T02:34:21;22.00;73.70
210;DHT22;90;48.810;9.120;2022-07-29T02:36:50;22.00;73.80
210;DHT22;90;48.810;9.120;2022-07-29T02:39:19;21.90;73.90
210;DHT22;90;48.810;9.120;2022-07-29T02:41:48;21.90;74.10
210;DHT22;90;48.810;9.120;2022-07-29T02:44:17;21.80;74.30
210;DHT22;90;48.810;9.120;2022-07-29T02:46:49;21.80;74.30
210;DHT22;90;48.810;9.120;2022-07-29T02:49:28;21.70;74.50
210;DHT22;90;48.810;9.120;2022-07-29T02:52:01;21.70;74.70
210;DHT22;90;48.810;9.120;2022-07-29T02:54:33;21.80;74.40
210;DHT22;90;48.810;9.120;2022-07-29T02:57:08;21.90;74.20
210;DHT22;90;48.810;9.120;2022-07-29T02:59:37;21.80;74.20
210;DHT22;90;48.810;9.120;2022-07-29T03:02:05;21.90;73.80
210;DHT22;90;48.810;9.120;2022-07-29T03:04:34;21.90;74.00
210;DHT22;90;48.810;9.120;2022-07-29T03:07:03;21.90;74.10
210;DHT22;90;48.810;9.120;2022-07-29T03:09:31;21.90;74.30
210;DHT22;90;48.810;9.120;2022-07-29T03:12:00;21.90;74.40
210;DHT22;90;48.810;9.120;2022-07-29T03:14:28;21.90;74.60
210;DHT22;90;48.810;9.120;2022-07-29T03:16:56;21.90;74.60
210;DHT22;90;48.810;9.120;2022-07-29T03:19:26;21.70;75.20
210;DHT22;90;48.810;9.120;2022-07-29T03:21:58;21.70;75.40
210;DHT22;90;48.810;9.120;2022-07-29T03:24:27;21.70;75.60
210;DHT22;90;48.810;9.120;2022-07-29T03:26:55;21.60;75.80
210;DHT22;90;48.810;9.120;2022-07-29T03:29:23;21.60;76.00
210;DHT22;90;48.810;9.120;2022-07-29T03:31:50;21.60;75.70
210;DHT22;90;48.810;9.120;2022-07-29T03:34:17;21.60;75.60
210;DHT22;90;48.810;9.120;2022-07-29T03:36:44;21.60;75.70
210;DHT22;90;48.810;9.120;2022-07-29T03:39:15;21.60;75.90
210;DHT22;90;48.810;9.120;2022-07-29T03:41:45;21.50;76.10
210;DHT22;90;48.810;9.120;2022-07-29T03:44:15;21.40;76.20
210;DHT22;90;48.810;9.120;2022-07-29T03:46:44;21.40;75.90
210;DHT22;90;48.810;9.120;2022-07-29T03:49:13;21.50;75.70
210;DHT22;90;48.810;9.120;2022-07-29T03:51:41;21.60;75.20
210;DHT22;90;48.810;9.120;2022-07-29T03:54:08;21.70;75.00
210;DHT22;90;48.810;9.120;2022-07-29T03:56:39;21.70;74.70
210;DHT22;90;48.810;9.120;2022-07-29T03:59:07;21.80;74.50
210;DHT22;90;48.810;9.120;2022-07-29T04:01:35;21.80;74.30
210;DHT22;90;48.810;9.120;2022-07-29T04:04:02;21.80;74.30
210;DHT22;90;48.810;9.120;2022-07-29T04:06:38;21.90;74.00
210;DHT22;90;48.810;9.120;2022-07-29T04:09:06;22.00;73.80
210;DHT22;90;48.810;9.120;2022-07-29T04:11:33;22.00;73.70
210;DHT22;90;48.810;9.120;2022-07-29T04:14:02;21.90;73.90
210;DHT22;90;48.810;9.120;2022-07-29T04:16:29;21.80;74.20
210;DHT22;90;48.810;9.120;2022-07-29T04:18:56;21.90;73.80
210;DHT22;90;48.810;9.120;2022-07-29T04:21:23;22.00;73.50
210;DHT22;90;48.810;9.120;2022-07-29T04:23:50;22.10;73.20
210;DHT22;90;48.810;9.120;2022-07-29T04:26:18;22.20;73.00
210;DHT22;90;48.810;9.120;2022-07-29T04:28:45;22.10;73.10
210;DHT22;90;48.810;9.120;2022-07-29T04:31:14;22.10;73.10
210;DHT22;90;48.810;9.120;2022-07-29T04:33:42;22.20;73.00
210;DHT22;90;48.810;9.120;2022-07-29T04:36:09;22.20;72.70
210;DHT22;90;48.810;9.120;2022-07-29T04:38:37;22.10;73.10
210;DHT22;90;48.810;9.120;2022-07-29T04:41:05;22.20;73.30
210;DHT22;90;48.810;9.120;2022-07-29T04:43:32;22.20;72.90
210;DHT22;90;48.810;9.120;2022-07-29T04:45:59;22.30;72.50
210;DHT22;90;48.810;9.120;2022-07-29T04:48:28;22.40;72.70
210;DHT22;90;48.810;9.120;2022-07-29T04:50:55;22.40;72.30
210;DHT22;90;48.810;9.120;2022-07-29T04:53:23;22.40;72.20
210;DHT22;90;48.810;9.120;2022-07-29T04:55:50;22.40;71.80
210;DHT22;90;48.810;9.120;2022-07-29T04:58:17;22.40;71.70
210;DHT22;90;48.810;9.120;2022-07-29T05:00:44;22.50;71.20
210;DHT22;90;48.810;9.120;2022-07-29T05:03:11;22.60;70.70
210;DHT22;90;48.810;9.120;2022-07-29T05:05:39;22.60;70.70
210;DHT22;90;48.810;9.120;2022-07-29T05:08:07;22.80;70.30
210;DHT22;90;48.810;9.120;2022-07-29T05:10:34;22.80;70.20
210;DHT22;90;48.810;9.120;2022-07-29T05:13:04;22.80;70.50
210;DHT22;90;48.810;9.120;2022-07-29T05:15:36;22.80;70.20
210;DHT22;90;48.810;9.120;2022-07-29T05:18:04;22.90;70.50
210;DHT22;90;48.810;9.120;2022-07-29T05:20:32;22.80;70.30
210;DHT22;90;48.810;9.120;2022-07-29T05:23:02;23.30;68.40
210;DHT22;90;48.810;9.120;2022-07-29T05:25:29;23.60;67.70
210;DHT22;90;48.810;9.120;2022-07-29T05:27:57;23.40;68.60
210;DHT22;90;48.810;9.120;2022-07-29T05:30:24;23.30;68.80
210;DHT22;90;48.810;9.120;2022-07-29T05:32:52;23.20;69.40
210;DHT22;90;48.810;9.120;2022-07-29T05:35:19;23.20;69.10
210;DHT22;90;48.810;9.120;2022-07-29T05:37:46;23.10;69.40
210;DHT22;90;48.810;9.120;2022-07-29T05:40:14;23.20;69.80
210;DHT22;90;48.810;9.120;2022-07-29T05:42:41;23.20;70.00
210;DHT22;90;48.810;9.120;2022-07-29T05:45:09;23.20;69.40
210;DHT22;90;48.810;9.120;2022-07-29T05:47:37;23.30;69.30
210;DHT22;90;48.810;9.120;2022-07-29T05:50:05;23.30;69.20
210;DHT22;90;48.810;9.120;2022-07-29T05:52:34;23.40;69.20
210;DHT22;90;48.810;9.120;2022-07-29T05:55:04;23.40;69.10
210;DHT22;90;48.810;9.120;2022-07-29T05:57:33;23.50;68.70
210;DHT22;90;48.810;9.120;2022-07-29T06:00:00;23.50;68.40
210;DHT22;90;48.810;9.120;2022-07-29T06:02:27;23.60;68.20
210;DHT22;90;48.810;9.120;2022-07-29T06:04:54;23.60;68.00
210;DHT22;90;48.810;9.120;2022-07-29T06:07:21;23.70;67.70
210;DHT22;90;48.810;9.120;2022-07-29T06:09:48;23.80;67.80
210;DHT22;90;48.810;9.120;2022-07-29T06:12:16;23.90;67.60
210;DHT22;90;48.810;9.120;2022-07-29T06:14:44;24.00;67.60
210;DHT22;90;48.810;9.120;2022-07-29T06:17:11;24.10;67.50
210;DHT22;90;48.810;9.120;2022-07-29T06:19:38;24.20;66.50
210;DHT22;90;48.810;9.120;2022-07-29T06:22:06;24.30;66.10
210;DHT22;90;48.810;9.120;2022-07-29T06:24:33;24.30;65.60
210;DHT22;90;48.810;9.120;2022-07-29T06:27:00;24.30;65.50
210;DHT22;90;48.810;9.120;2022-07-29T06:29:27;24.30;65.40
210;DHT22;90;48.810;9.120;2022-07-29T06:31:56;24.30;65.40
210;DHT22;90;48.810;9.120;2022-07-29T06:34:23;24.40;65.00
210;DHT22;90;48.810;9.120;2022-07-29T06:36:50;24.40;64.80
210;DHT22;90;48.810;9.120;2022-07-29T06:39:18;24.40;65.00
210;DHT22;90;48.810;9.120;2022-07-29T06:41:47;24.40;64.80
210;DHT22;90;48.810;9.120;2022-07-29T06:44:14;24.50;64.80
210;DHT22;90;48.810;9.120;2022-07-29T06:46:42;24.50;64.80
210;DHT22;90;48.810;9.120;2022-07-29T06:49:11;24.50;64.90
210;DHT22;90;48.810;9.120;2022-07-29T06:51:39;24.50;64.60
210;DHT22;90;48.810;9.120;2022-07-29T06:54:07;24.50;64.60
210;DHT22;90;48.810;9.120;2022-07-29T06:56:34;24.50;64.60
210;DHT22;90;48.810;9.120;2022-07-29T06:59:03;24.60;64.60
210;DHT22;90;48.810;9.120;2022-07-29T07:01:30;24.60;65.00
210;DHT22;90;48.810;9.120;2022-07-29T07:03:59;24.50;65.10
210;DHT22;90;48.810;9.120;2022-07-29T07:06:27;24.50;65.00
210;DHT22;90;48.810;9.120;2022-07-29T07:08:54;24.50;65.10
210;DHT22;90;48.810;9.120;2022-07-29T07:11:24;24.50;65.00
210;DHT22;90;48.810;9.120;2022-07-29T07:13:54;24.50;65.10
210;DHT22;90;48.810;9.120;2022-07-29T07:16:21;24.40;65.40
210;DHT22;90;48.810;9.120;2022-07-29T07:18:48;24.30;65.60
210;DHT22;90;48.810;9.120;2022-07-29T07:21:15;24.30;65.70
210;DHT22;90;48.810;9.120;2022-07-29T07:23:45;24.30;65.90
210;DHT22;90;48.810;9.120;2022-07-29T07:26:12;24.40;65.90
210;DHT22;90;48.810;9.120;2022-07-29T07:28:39;24.40;65.10
210;DHT22;90;48.810;9.120;2022-07-29T07:31:06;24.50;65.10
210;DHT22;90;48.810;9.120;2022-07-29T07:33:33;24.50;65.20
210;DHT22;90;48.810;9.120;2022-07-29T07:36:03;24.50;65.10
210;DHT22;90;48.810;9.120;2022-07-29T07:38:33;24.50;65.10
210;DHT22;90;48.810;9.120;2022-07-29T07:41:03;24.40;64.90
210;DHT22;90;48.810;9.120;2022-07-29T07:43:30;24.50;64.90
210;DHT22;90;48.810;9.120;2022-07-29T07:45:57;24.60;64.40
210;DHT22;90;48.810;9.120;2022-07-29T07:48:25;24.70;64.00
210;DHT22;90;48.810;9.120;2022-07-29T07:50:56;24.80;63.60
210;DHT22;90;48.810;9.120;2022-07-29T07:53:23;24.90;63.90
210;DHT22;90;48.810;9.120;2022-07-29T07:55:50;24.90;64.10
210;DHT22;90;48.810;9.120;2022-07-29T07:58:19;25.00;64.30
210;DHT22;90;48.810;9.120;2022-07-29T08:00:46;25.00;63.20
210;DHT22;90;48.810;9.120;2022-07-29T08:03:14;25.10;63.00
210;DHT22;90;48.810;9.120;2022-07-29T08:05:41;24.90;62.40
210;DHT22;90;48.810;9.120;2022-07-29T08:08:08;25.00;62.80
210;DHT22;90;48.810;9.120;2022-07-29T08:10:35;25.10;62.40
210;DHT22;90;48.810;9.120;2022-07-29T08:13:24;25.10;62.40
210;DHT22;90;48.810;9.120;2022-07-29T08:15:52;25.20;62.40
210;DHT22;90;48.810;9.120;2022-07-29T08:18:25;25.20;62.20
210;DHT22;90;48.810;9.120;2022-07-29T08:20:53;25.30;62.10
210;DHT22;90;48.810;9.120;2022-07-29T08:23:22;25.30;62.20
210;DHT22;90;48.810;9.120;2022-07-29T08:25:53;25.40;62.10
210;DHT22;90;48.810;9.120;2022-07-29T08:28:24;25.40;59.40
210;DHT22;90;48.810;9.120;2022-07-29T08:30:51;25.40;60.40
210;DHT22;90;48.810;9.120;2022-07-29T08:33:22;25.40;59.40
210;DHT22;90;48.810;9.120;2022-07-29T08:35:58;25.50;57.80
210;DHT22;90;48.810;9.120;2022-07-29T08:38:25;25.40;57.30
210;DHT22;90;48.810;9.120;2022-07-29T08:40:53;25.50;58.00
210;DHT22;90;48.810;9.120;2022-07-29T08:43:22;25.50;58.60
210;DHT22;90;48.810;9.120;2022-07-29T08:45:50;25.50;58.80
210;DHT22;90;48.810;9.120;2022-07-29T08:48:21;25.50;58.90
210;DHT22;90;48.810;9.120;2022-07-29T08:50:54;25.40;59.10
210;DHT22;90;48.810;9.120;2022-07-29T08:53:21;25.40;59.90
210;DHT22;90;48.810;9.120;2022-07-29T08:55:52;25.40;58.20
210;DHT22;90;48.810;9.120;2022-07-29T08:58:24;25.50;58.50
210;DHT22;90;48.810;9.120;2022-07-29T09:00:54;25.50;58.60
210;DHT22;90;48.810;9.120;2022-07-29T09:03:24;25.60;58.50
210;DHT22;90;48.810;9.120;2022-07-29T09:05:52;25.60;58.20
210;DHT22;90;48.810;9.120;2022-07-29T09:08:19;25.70;58.10
210;DHT22;90;48.810;9.120;2022-07-29T09:10:47;25.90;56.90
210;DHT22;90;48.810;9.120;2022-07-29T09:13:14;25.90;56.30
210;DHT22;90;48.810;9.120;2022-07-29T09:15:44;25.90;57.20
210;DHT22;90;48.810;9.120;2022-07-29T09:18:12;26.00;56.50
210;DHT22;90;48.810;9.120;2022-07-29T09:20:59;26.00;56.90
210;DHT22;90;48.810;9.120;2022-07-29T09:24:04;26.10;56.90
210;DHT22;90;48.810;9.120;2022-07-29T09:26:33;26.10;56.60
210;DHT22;90;48.810;9.120;2022-07-29T09:29:07;26.20;56.70
210;DHT22;90;48.810;9.120;2022-07-29T09:31:38;26.20;57.00
210;DHT22;90;48.810;9.120;2022-07-29T09:34:06;26.20;56.30
210;DHT22;90;48.810;9.120;2022-07-29T09:36:39;26.20;56.50
210;DHT22;90;48.810;9.120;2022-07-29T09:39:08;26.20;56.00
210;DHT22;90;48.810;9.120;2022-07-29T09:41:45;26.20;56.60
210;DHT22;90;48.810;9.120;2022-07-29T09:44:12;26.40;56.10
210;DHT22;90;48.810;9.120;2022-07-29T09:46:55;26.40;55.80
210;DHT22;90;48.810;9.120;2022-07-29T09:49:23;26.50;55.90
210;DHT22;90;48.810;9.120;2022-07-29T09:52:08;26.60;55.60
210;DHT22;90;48.810;9.120;2022-07-29T09:54:36;26.60;55.70
210;DHT22;90;48.810;9.120;2022-07-29T09:57:05;26.60;56.10
210;DHT22;90;48.810;9.120;2022-07-29T09:59:33;26.60;56.60
210;DHT22;90;48.810;9.120;2022-07-29T10:02:01;26.50;56.70
210;DHT22;90;48.810;9.120;2022-07-29T10:04:39;26.50;56.60
210;DHT22;90;48.810;9.120;2022-07-29T10:07:06;26.30;56.70
210;DHT22;90;48.810;9.120;2022-07-29T10:09:34;26.20;57.20
210;DHT22;90;48.810;9.120;2022-07-29T10:12:09;26.10;56.50
210;DHT22;90;48.810;9.120;2022-07-29T10:14:40;26.00;57.50
210;DHT22;90;48.810;9.120;2022-07-29T10:17:10;26.00;58.00
210;DHT22;90;48.810;9.120;2022-07-29T10:19:38;25.90;57.90
210;DHT22;90;48.810;9.120;2022-07-29T10:22:07;25.90;57.80
210;DHT22;90;48.810;9.120;2022-07-29T10:24:35;25.90;57.90
210;DHT22;90;48.810;9.120;2022-07-29T10:27:05;25.80;57.30
210;DHT22;90;48.810;9.120;2022-07-29T10:29:32;25.70;57.80
210;DHT22;90;48.810;9.120;2022-07-29T10:32:15;25.60;57.50
210;DHT22;90;48.810;9.120;2022-07-29T10:35:11;25.60;57.90
210;DHT22;90;48.810;9.120;2022-07-29T10:38:10;25.50;57.50
210;DHT22;90;48.810;9.120;2022-07-29T10:40:45;25.40;57.10
210;DHT22;90;48.810;9.120;2022-07-29T10:43:36;25.30;56.70
210;DHT22;90;48.810;9.120;2022-07-29T10:46:04;25.30;56.50
210;DHT22;90;48.810;9.120;2022-07-29T10:48:33;25.20;56.60
210;DHT22;90;48.810;9.120;2022-07-29T10:51:02;25.20;56.60
210;DHT22;90;48.810;9.120;2022-07-29T10:53:48;25.20;56.40
210;DHT22;90;48.810;9.120;2022-07-29T10:56:25;25.20;56.80
210;DHT22;90;48.810;9.120;2022-07-29T10:59:23;25.10;57.50
210;DHT22;90;48.810;9.120;2022-07-29T11:01:52;25.10;56.00
210;DHT22;90;48.810;9.120;2022-07-29T11:07:24;25.10;56.60
210;DHT22;90;48.810;9.120;2022-07-29T11:10:24;25.00;55.70
210;DHT22;90;48.810;9.120;2022-07-29T11:12:51;25.00;56.80
210;DHT22;90;48.810;9.120;2022-07-29T11:15:20;24.90;58.30
210;DHT22;90;48.810;9.120;2022-07-29T11:18:04;24.80;59.20
210;DHT22;90;48.810;9.120;2022-07-29T11:20:37;24.70;59.90
210;DHT22;90;48.810;9.120;2022-07-29T11:23:20;24.70;61.30
210;DHT22;90;48.810;9.120;2022-07-29T11:26:17;24.70;64.10
210;DHT22;90;48.810;9.120;2022-07-29T11:29:05;24.70;64.40
210;DHT22;90;48.810;9.120;2022-07-29T11:31:35;24.60;65.70
210;DHT22;90;48.810;9.120;2022-07-29T11:34:22;24.60;65.50
210;DHT22;90;48.810;9.120;2022-07-29T11:40:15;24.70;65.10
210;DHT22;90;48.810;9.120;2022-07-29T11:42:49;24.70;66.20
210;DHT22;90;48.810;9.120;2022-07-29T11:45:22;24.70;66.30
210;DHT22;90;48.810;9.120;2022-07-29T11:47:55;24.80;66.10
210;DHT22;90;48.810;9.120;2022-07-29T11:50:41;24.90;65.80
210;DHT22;90;48.810;9.120;2022-07-29T11:53:11;24.90;66.10
210;DHT22;90;48.810;9.120;2022-07-29T11:55:40;24.90;65.90
210;DHT22;90;48.810;9.120;2022-07-29T11:58:08;25.00;65.60
210;DHT22;90;48.810;9.120;2022-07-29T12:00:39;25.00;64.20
210;DHT22;90;48.810;9.120;2022-07-29T12:03:07;25.20;63.70
210;DHT22;90;48.810;9.120;2022-07-29T12:05:38;25.30;63.70
210;DHT22;90;48.810;9.120;2022-07-29T12:08:10;25.40;63.10
210;DHT22;90;48.810;9.120;2022-07-29T12:10:40;25.40;63.20
210;DHT22;90;48.810;9.120;2022-07-29T12:13:07;25.50;63.50
210;DHT22;90;48.810;9.120;2022-07-29T12:15:35;25.50;63.80
210;DHT22;90;48.810;9.120;2022-07-29T12:18:13;25.60;64.20
210;DHT22;90;48.810;9.120;2022-07-29T12:20:46;25.60;65.40
210;DHT22;90;48.810;9.120;2022-07-29T12:23:14;25.60;66.00
210;DHT22;90;48.810;9.120;2022-07-29T12:25:44;25.50;65.30
210;DHT22;90;48.810;9.120;2022-07-29T12:28:12;25.40;65.60
210;DHT22;90;48.810;9.120;2022-07-29T12:30:43;25.30;65.80
210;DHT22;90;48.810;9.120;2022-07-29T12:33:16;25.30;65.90
210;DHT22;90;48.810;9.120;2022-07-29T12:35:46;25.20;65.90
210;DHT22;90;48.810;9.120;2022-07-29T12:38:14;25.20;66.50
210;DHT22;90;48.810;9.120;2022-07-29T12:40:44;25.10;66.90
210;DHT22;90;48.810;9.120;2022-07-29T12:43:13;25.00;67.80
210;DHT22;90;48.810;9.120;2022-07-29T12:45:42;25.00;68.50
210;DHT22;90;48.810;9.120;2022-07-29T12:48:10;24.90;68.70
210;DHT22;90;48.810;9.120;2022-07-29T12:50:52;24.80;68.70
210;DHT22;90;48.810;9.120;2022-07-29T12:53:19;24.70;68.60
210;DHT22;90;48.810;9.120;2022-07-29T12:55:49;24.50;68.90
210;DHT22;90;48.810;9.120;2022-07-29T12:58:28;24.50;68.30
210;DHT22;90;48.810;9.120;2022-07-29T13:01:08;24.50;67.80
210;DHT22;90;48.810;9.120;2022-07-29T13:03:51;24.50;66.70
210;DHT22;90;48.810;9.120;2022-07-29T13:06:29;24.50;65.30
210;DHT22;90;48.810;9.120;2022-07-29T13:09:02;24.50;64.30
210;DHT22;90;48.810;9.120;2022-07-29T13:11:32;24.40;63.50
210;DHT22;90;48.810;9.120;2022-07-29T13:14:00;24.30;63.50
210;DHT22;90;48.810;9.120;2022-07-29T13:16:27;24.30;63.50
210;DHT22;90;48.810;9.120;2022-07-29T13:19:06;24.20;63.70
210;DHT22;90;48.810;9.120;2022-07-29T13:21:33;24.30;63.60
210;DHT22;90;48.810;9.120;2022-07-29T13:24:01;24.30;63.60
210;DHT22;90;48.810;9.120;2022-07-29T13:26:28;24.30;63.30
210;DHT22;90;48.810;9.120;2022-07-29T13:28:57;24.30;63.30
210;DHT22;90;48.810;9.120;2022-07-29T13:31:24;24.20;64.00
210;DHT22;90;48.810;9.120;2022-07-29T13:33:51;24.10;64.40
210;DHT22;90;48.810;9.120;2022-07-29T13:36:18;24.10;65.20
210;DHT22;90;48.810;9.120;2022-07-29T13:38:45;24.10;65.80
210;DHT22;90;48.810;9.120;2022-07-29T13:41:12;24.30;66.00
210;DHT22;90;48.810;9.120;2022-07-29T13:43:40;24.30;66.50
210;DHT22;90;48.810;9.120;2022-07-29T13:46:08;24.40;66.40
210;DHT22;90;48.810;9.120;2022-07-29T13:48:35;24.50;66.00
210;DHT22;90;48.810;9.120;2022-07-29T13:51:02;24.70;65.10
210;DHT22;90;48.810;9.120;2022-07-29T13:53:29;25.00;63.70
210;DHT22;90;48.810;9.120;2022-07-29T13:56:00;25.20;63.10
210;DHT22;90;48.810;9.120;2022-07-29T13:58:27;25.20;63.00
210;DHT22;90;48.810;9.120;2022-07-29T14:00:55;25.40;62.10
210;DHT22;90;48.810;9.120;2022-07-29T14:03:23;25.40;62.10
210;DHT22;90;48.810;9.120;2022-07-29T14:05:51;25.50;61.70
210;DHT22;90;48.810;9.120;2022-07-29T14:08:18;25.50;61.80
210;DHT22;90;48.810;9.120;2022-07-29T14:10:45;25.60;61.90
210;DHT22;90;48.810;9.120;2022-07-29T14:13:12;25.80;60.30
210;DHT22;90;48.810;9.120;2022-07-29T14:15:39;25.90;59.70
210;DHT22;90;48.810;9.120;2022-07-29T14:18:06;26.00;59.30
210;DHT22;90;48.810;9.120;2022-07-29T14:20:34;26.10;59.10
210;DHT22;90;48.810;9.120;2022-07-29T14:23:01;26.10;59.10
210;DHT22;90;48.810;9.120;2022-07-29T14:25:29;26.20;59.00
210;DHT22;90;48.810;9.120;2022-07-29T14:27:56;26.30;59.10
210;DHT22;90;48.810;9.120;2022-07-29T14:30:26;26.30;58.70
210;DHT22;90;48.810;9.120;2022-07-29T14:32:53;26.30;58.60
210;DHT22;90;48.810;9.120;2022-07-29T14:35:20;26.30;58.20
210;DHT22;90;48.810;9.120;2022-07-29T14:37:48;26.30;58.30
210;DHT22;90;48.810;9.120;2022-07-29T14:40:17;26.30;58.10
210;DHT22;90;48.810;9.120;2022-07-29T14:42:51;26.30;57.50
210;DHT22;90;48.810;9.120;2022-07-29T14:45:18;26.20;57.60
210;DHT22;90;48.810;9.120;2022-07-29T14:47:45;26.20;57.80
210;DHT22;90;48.810;9.120;2022-07-29T14:50:12;26.20;57.70
210;DHT22;90;48.810;9.120;2022-07-29T14:52:40;26.30;57.80
210;DHT22;90;48.810;9.120;2022-07-29T14:55:10;26.20;57.70
210;DHT22;90;48.810;9.120;2022-07-29T14:57:39;26.20;57.50
210;DHT22;90;48.810;9.120;2022-07-29T15:00:07;26.20;57.40
210;DHT22;90;48.810;9.120;2022-07-29T15:02:35;26.30;57.40
210;DHT22;90;48.810;9.120;2022-07-29T15:05:03;26.20;57.70
210;DHT22;90;48.810;9.120;2022-07-29T15:07:30;26.20;56.00
210;DHT22;90;48.810;9.120;2022-07-29T15:09:57;26.20;56.00
210;DHT22;90;48.810;9.120;2022-07-29T15:12:25;26.20;56.00
210;DHT22;90;48.810;9.120;2022-07-29T15:14:53;26.10;54.50
210;DHT22;90;48.810;9.120;2022-07-29T15:17:20;26.10;54.90
210;DHT22;90;48.810;9.120;2022-07-29T15:19:47;26.10;54.00
210;DHT22;90;48.810;9.120;2022-07-29T15:22:14;26.10;55.20
210;DHT22;90;48.810;9.120;2022-07-29T15:24:42;26.10;55.00
210;DHT22;90;48.810;9.120;2022-07-29T15:27:10;26.00;54.80
210;DHT22;90;48.810;9.120;2022-07-29T15:29:41;26.00;55.00
210;DHT22;90;48.810;9.120;2022-07-29T15:32:08;26.00;54.60
210;DHT22;90;48.810;9.120;2022-07-29T15:34:35;26.00;53.70
210;DHT22;90;48.810;9.120;2022-07-29T15:37:02;26.00;53.70
210;DHT22;90;48.810;9.120;2022-07-29T15:39:29;26.00;54.40
210;DHT22;90;48.810;9.120;2022-07-29T15:41:57;26.00;54.50
210;DHT22;90;48.810;9.120;2022-07-29T15:44:24;26.00;53.30
210;DHT22;90;48.810;9.120;2022-07-29T15:46:53;26.00;54.30
210;DHT22;90;48.810;9.120;2022-07-29T15:49:29;26.00;54.10
210;DHT22;90;48.810;9.120;2022-07-29T15:51:57;26.00;54.30
210;DHT22;90;48.810;9.120;2022-07-29T15:54:25;26.00;53.60
210;DHT22;90;48.810;9.120;2022-07-29T15:56:52;26.00;53.00
210;DHT22;90;48.810;9.120;2022-07-29T15:59:19;26.00;53.40
210;DHT22;90;48.810;9.120;2022-07-29T16:01:46;26.00;53.70
210;DHT22;90;48.810;9.120;2022-07-29T16:04:15;26.00;53.30
210;DHT22;90;48.810;9.120;2022-07-29T16:06:43;25.90;54.10
210;DHT22;90;48.810;9.120;2022-07-29T16:09:10;25.90;53.60
210;DHT22;90;48.810;9.120;2022-07-29T16:11:37;25.90;54.40
210;DHT22;90;48.810;9.120;2022-07-29T16:14:04;25.90;54.00
210;DHT22;90;48.810;9.120;2022-07-29T16:16:32;25.90;54.50
210;DHT22;90;48.810;9.120;2022-07-29T16:18:59;25.90;52.60
210;DHT22;90;48.810;9.120;2022-07-29T16:21:27;26.00;53.70
210;DHT22;90;48.810;9.120;2022-07-29T16:23:56;26.00;54.00
210;DHT22;90;48.810;9.120;2022-07-29T16:26:24;25.90;54.40
210;DHT22;90;48.810;9.120;2022-07-29T16:28:51;25.90;55.80
210;DHT22;90;48.810;9.120;2022-07-29T16:31:18;26.00;56.50
210;DHT22;90;48.810;9.120;2022-07-29T16:33:47;26.00;58.20
210;DHT22;90;48.810;9.120;2022-07-29T16:36:14;25.90;60.30
210;DHT22;90;48.810;9.120;2022-07-29T16:38:43;26.00;60.40
210;DHT22;90;48.810;9.120;2022-07-29T16:41:10;26.00;60.90
210;DHT22;90;48.810;9.120;2022-07-29T16:43:37;26.00;60.40
210;DHT22;90;48.810;9.120;2022-07-29T16:46:06;26.00;61.10
210;DHT22;90;48.810;9.120;2022-07-29T16:48:33;26.10;61.10
210;DHT22;90;48.810;9.120;2022-07-29T16:51:01;26.10;61.40
210;DHT22;90;48.810;9.120;2022-07-29T16:53:28;26.00;60.60
210;DHT22;90;48.810;9.120;2022-07-29T16:55:56;26.10;60.80
210;DHT22;90;48.810;9.120;2022-07-29T16:58:24;26.10;60.40
210;DHT22;90;48.810;9.120;2022-07-29T17:00:51;26.10;62.90
210;DHT22;90;48.810;9.120;2022-07-29T17:03:22;26.00;63.60
210;DHT22;90;48.810;9.120;2022-07-29T17:05:49;26.00;63.50
210;DHT22;90;48.810;9.120;2022-07-29T17:08:16;25.90;62.50
210;DHT22;90;48.810;9.120;2022-07-29T17:10:43;26.00;62.30
210;DHT22;90;48.810;9.120;2022-07-29T17:13:11;26.00;62.80
210;DHT22;90;48.810;9.120;2022-07-29T17:15:39;26.10;61.90